createdAt,value
2018-11-10T00:00:15.493Z,931.65
2018-11-10T00:01:15.447Z,931.66
2018-11-10T00:02:15.499Z,931.63
2018-11-10T00:03:15.352Z,931.69
2018-11-10T00:04:15.335Z,931.67
2018-11-10T00:05:15.259Z,931.67
2018-11-10T00:06:15.212Z,931.65
2018-11-10T00:07:15.164Z,931.65
2018-11-10T00:08:15.313Z,931.68
2018-11-10T00:09:15.071Z,931.63
2018-11-10T00:10:15.024Z,931.73
2018-11-10T00:11:14.977Z,931.63
2018-11-10T00:12:14.930Z,931.72
2018-11-10T00:13:14.883Z,931.68
2018-11-10T00:14:14.937Z,931.67
2018-11-10T00:15:14.789Z,931.65
2018-11-10T00:16:14.743Z,931.69
2018-11-10T00:17:14.695Z,931.67
2018-11-10T00:18:14.648Z,931.71
2018-11-10T00:19:14.602Z,931.71
2018-11-10T00:20:14.655Z,931.68
2018-11-10T00:21:14.508Z,931.70
2018-11-10T00:22:14.462Z,931.70
2018-11-10T00:23:14.414Z,931.71
2018-11-10T00:24:14.408Z,931.65
2018-11-10T00:25:14.327Z,931.73
2018-11-10T00:26:14.373Z,931.77
2018-11-10T00:27:14.227Z,931.67
2018-11-10T00:28:14.179Z,931.77
2018-11-10T00:29:14.131Z,931.71
2018-11-10T00:30:14.086Z,931.77
2018-11-10T00:31:14.038Z,931.80
2018-11-10T00:32:13.990Z,931.82
2018-11-10T00:33:13.947Z,931.82
2018-11-10T00:34:13.897Z,931.80
2018-11-10T00:35:13.857Z,931.81
2018-11-10T00:36:13.803Z,931.82
2018-11-10T00:37:13.756Z,931.81
2018-11-10T00:38:13.709Z,931.83
2018-11-10T00:39:13.663Z,931.85
2018-11-10T00:40:13.615Z,931.83
2018-11-10T00:41:13.568Z,931.83
2018-11-10T00:42:13.521Z,931.86
2018-11-10T00:43:13.473Z,931.84
2018-11-10T00:44:13.427Z,931.80
2018-11-10T00:45:13.380Z,931.80
2018-11-10T00:46:13.332Z,931.82
2018-11-10T00:47:13.287Z,931.81
2018-11-10T00:48:13.238Z,931.82
2018-11-10T00:49:13.193Z,931.81
2018-11-10T00:50:13.246Z,931.86
2018-11-10T00:51:13.097Z,931.83
2018-11-10T00:52:13.050Z,931.84
2018-11-10T00:53:13.003Z,931.84
2018-11-10T00:54:12.960Z,931.84
2018-11-10T00:55:12.908Z,931.83
2018-11-10T00:56:12.961Z,931.77
2018-11-10T00:57:12.814Z,931.80
2018-11-10T00:58:12.769Z,931.76
2018-11-10T00:59:12.726Z,931.83
2018-11-10T01:00:12.673Z,931.73
2018-11-10T01:01:12.625Z,931.78
2018-11-10T01:02:12.678Z,931.76
2018-11-10T01:03:12.531Z,931.73
2018-11-10T01:04:12.493Z,931.77
2018-11-10T01:05:12.437Z,931.70
2018-11-10T01:06:12.390Z,931.72
2018-11-10T01:07:12.344Z,931.78
2018-11-10T01:08:12.396Z,931.70
2018-11-10T01:09:12.257Z,931.74
2018-11-10T01:10:12.203Z,931.74
2018-11-10T01:11:12.154Z,931.71
2018-11-10T01:12:12.107Z,931.78
2018-11-10T01:13:12.060Z,931.70
2018-11-10T01:14:12.114Z,931.65
2018-11-10T01:15:11.966Z,931.62
2018-11-10T01:16:11.918Z,931.65
2018-11-10T01:17:11.871Z,931.66
2018-11-10T01:18:11.833Z,931.62
2018-11-10T01:19:11.784Z,931.67
2018-11-10T01:20:11.838Z,931.67
2018-11-10T01:21:11.689Z,931.63
2018-11-10T01:22:11.643Z,931.63
2018-11-10T01:23:11.596Z,931.62
2018-11-10T01:24:11.547Z,931.66
2018-11-10T01:25:11.536Z,931.64
2018-11-10T01:26:11.556Z,931.70
2018-11-10T01:27:11.406Z,931.67
2018-11-10T01:28:11.360Z,931.64
2018-11-10T01:29:11.312Z,931.68
2018-11-10T01:30:11.275Z,931.66
2018-11-10T01:31:11.219Z,931.66
2018-11-10T01:32:11.171Z,931.66
2018-11-10T01:33:11.117Z,931.69
2018-11-10T01:34:11.070Z,931.67
2018-11-10T01:35:11.022Z,931.67
2018-11-10T01:36:10.975Z,931.66
2018-11-10T01:37:10.929Z,931.68
2018-11-10T01:38:10.883Z,931.66
2018-11-10T01:39:10.834Z,931.60
2018-11-10T01:40:10.788Z,931.61
2018-11-10T01:41:10.739Z,931.59
2018-11-10T01:42:10.692Z,931.56
2018-11-10T01:43:10.645Z,931.57
2018-11-10T01:44:10.597Z,931.55
2018-11-10T01:45:10.554Z,931.53
2018-11-10T01:46:10.504Z,931.53
2018-11-10T01:47:10.459Z,931.51
2018-11-10T01:48:10.409Z,931.53
2018-11-10T01:49:10.362Z,931.53
2018-11-10T01:50:10.315Z,931.51
2018-11-10T01:51:10.267Z,931.51
2018-11-10T01:52:10.220Z,931.48
2018-11-10T01:53:10.173Z,931.50
2018-11-10T01:54:10.126Z,931.44
2018-11-10T01:55:10.079Z,931.45
2018-11-10T01:56:10.032Z,931.46
2018-11-10T01:57:09.988Z,931.44
2018-11-10T01:58:09.938Z,931.47
2018-11-10T01:59:09.890Z,931.41
2018-11-10T02:00:09.845Z,931.40
2018-11-10T02:01:09.799Z,931.35
2018-11-10T02:02:09.749Z,931.36
2018-11-10T02:03:09.702Z,931.39
2018-11-10T02:04:09.655Z,931.39
2018-11-10T02:05:09.608Z,931.36
2018-11-10T02:06:09.560Z,931.36
2018-11-10T02:07:09.513Z,931.31
2018-11-10T02:08:09.467Z,931.37
2018-11-10T02:09:09.419Z,931.38
2018-11-10T02:10:09.378Z,931.33
2018-11-10T02:11:09.324Z,931.32
2018-11-10T02:12:09.280Z,931.30
2018-11-10T02:13:09.231Z,931.31
2018-11-10T02:14:09.183Z,931.32
2018-11-10T02:15:09.136Z,931.26
2018-11-10T02:16:09.090Z,931.27
2018-11-10T02:17:09.042Z,931.28
2018-11-10T02:18:08.995Z,931.20
2018-11-10T02:19:08.948Z,931.19
2018-11-10T02:20:08.903Z,931.18
2018-11-10T02:21:08.854Z,931.22
2018-11-10T02:22:08.807Z,931.17
2018-11-10T02:23:08.759Z,931.14
2018-11-10T02:24:08.712Z,931.19
2018-11-10T02:25:08.670Z,931.13
2018-11-10T02:26:08.620Z,931.15
2018-11-10T02:27:08.570Z,931.10
2018-11-10T02:28:08.523Z,931.05
2018-11-10T02:29:08.476Z,931.10
2018-11-10T02:30:08.429Z,931.07
2018-11-10T02:31:08.382Z,931.04
2018-11-10T02:32:08.336Z,931.03
2018-11-10T02:33:08.287Z,930.98
2018-11-10T02:34:08.243Z,931.00
2018-11-10T02:35:08.193Z,930.97
2018-11-10T02:36:08.145Z,930.96
2018-11-10T02:37:08.098Z,930.99
2018-11-10T02:38:08.056Z,931.03
2018-11-10T02:39:08.004Z,930.96
2018-11-10T02:40:07.957Z,930.99
2018-11-10T02:41:07.910Z,930.98
2018-11-10T02:42:07.862Z,930.95
2018-11-10T02:43:07.817Z,930.91
2018-11-10T02:44:07.767Z,930.94
2018-11-10T02:45:07.727Z,930.94
2018-11-10T02:46:07.676Z,930.88
2018-11-10T02:47:07.626Z,930.94
2018-11-10T02:48:07.579Z,930.94
2018-11-10T02:49:07.532Z,930.96
2018-11-10T02:50:07.484Z,930.95
2018-11-10T02:51:07.437Z,930.89
2018-11-10T02:52:07.390Z,930.93
2018-11-10T02:53:07.343Z,930.91
2018-11-10T02:54:07.296Z,930.86
2018-11-10T02:55:07.249Z,930.85
2018-11-10T02:56:07.204Z,930.87
2018-11-10T02:57:07.154Z,930.87
2018-11-10T02:58:07.107Z,930.87
2018-11-10T02:59:07.063Z,930.84
2018-11-10T03:00:07.013Z,930.84
2018-11-10T03:01:06.967Z,930.78
2018-11-10T03:02:06.918Z,930.78
2018-11-10T03:03:06.872Z,930.86
2018-11-10T03:04:06.824Z,930.75
2018-11-10T03:05:06.777Z,930.78
2018-11-10T03:06:06.736Z,930.81
2018-11-10T03:07:06.683Z,930.74
2018-11-10T03:08:06.635Z,930.75
2018-11-10T03:09:06.589Z,930.78
2018-11-10T03:10:06.541Z,930.72
2018-11-10T03:11:06.494Z,930.71
2018-11-10T03:12:06.447Z,930.70
2018-11-10T03:13:06.405Z,930.71
2018-11-10T03:14:06.352Z,930.70
2018-11-10T03:15:06.305Z,930.71
2018-11-10T03:16:06.257Z,930.68
2018-11-10T03:17:06.211Z,930.68
2018-11-10T03:18:06.164Z,930.73
2018-11-10T03:19:06.118Z,930.70
2018-11-10T03:20:06.069Z,930.69
2018-11-10T03:21:06.028Z,930.69
2018-11-10T03:22:05.975Z,930.62
2018-11-10T03:23:05.928Z,930.63
2018-11-10T03:24:05.894Z,930.59
2018-11-10T03:25:05.834Z,930.58
2018-11-10T03:26:05.787Z,930.57
2018-11-10T03:27:05.739Z,930.56
2018-11-10T03:28:05.696Z,930.53
2018-11-10T03:29:05.645Z,930.50
2018-11-10T03:30:05.611Z,930.50
2018-11-10T03:31:05.554Z,930.51
2018-11-10T03:32:05.504Z,930.44
2018-11-10T03:33:05.457Z,930.43
2018-11-10T03:34:05.413Z,930.39
2018-11-10T03:35:05.363Z,930.40
2018-11-10T03:36:05.315Z,930.37
2018-11-10T03:37:05.267Z,930.38
2018-11-10T03:38:05.220Z,930.39
2018-11-10T03:39:05.173Z,930.36
2018-11-10T03:40:05.130Z,930.34
2018-11-10T03:41:05.079Z,930.36
2018-11-10T03:42:05.032Z,930.36
2018-11-10T03:43:04.985Z,930.38
2018-11-10T03:44:04.937Z,930.31
2018-11-10T03:45:04.890Z,930.29
2018-11-10T03:46:04.843Z,930.30
2018-11-10T03:47:04.796Z,930.27
2018-11-10T03:48:04.749Z,930.31
2018-11-10T03:49:04.701Z,930.28
2018-11-10T03:50:04.654Z,930.24
2018-11-10T03:51:04.607Z,930.25
2018-11-10T03:52:04.561Z,930.26
2018-11-10T03:53:04.514Z,930.20
2018-11-10T03:54:04.466Z,930.23
2018-11-10T03:55:04.419Z,930.24
2018-11-10T03:56:04.573Z,930.23
2018-11-10T03:57:04.324Z,930.17
2018-11-10T03:58:04.277Z,930.14
2018-11-10T03:59:04.230Z,930.14
2018-11-10T04:00:04.183Z,930.12
2018-11-10T04:01:04.136Z,930.12
2018-11-10T04:02:04.090Z,930.13
2018-11-10T04:03:04.041Z,930.05
2018-11-10T04:04:03.996Z,930.09
2018-11-10T04:05:03.948Z,930.07
2018-11-10T04:06:03.899Z,930.10
2018-11-10T04:07:03.853Z,930.11
2018-11-10T04:08:03.805Z,930.07
2018-11-10T04:09:03.758Z,930.04
2018-11-10T04:10:03.711Z,930.02
2018-11-10T04:11:03.664Z,930.06
2018-11-10T04:12:03.617Z,930.04
2018-11-10T04:13:03.569Z,930.06
2018-11-10T04:14:03.522Z,930.01
2018-11-10T04:15:03.475Z,929.97
2018-11-10T04:16:03.428Z,929.89
2018-11-10T04:17:03.381Z,929.98
2018-11-10T04:18:03.334Z,929.94
2018-11-10T04:19:03.287Z,929.92
2018-11-10T04:20:03.240Z,929.90
2018-11-10T04:21:03.192Z,929.90
2018-11-10T04:22:03.145Z,929.91
2018-11-10T04:23:03.098Z,929.88
2018-11-10T04:24:03.051Z,929.91
2018-11-10T04:25:03.004Z,929.86
2018-11-10T04:26:02.958Z,929.89
2018-11-10T04:27:02.910Z,929.90
2018-11-10T04:28:02.863Z,929.91
2018-11-10T04:29:02.816Z,929.89
2018-11-10T04:30:02.777Z,929.86
2018-11-10T04:31:02.722Z,929.82
2018-11-10T04:32:02.675Z,929.81
2018-11-10T04:33:02.629Z,929.81
2018-11-10T04:34:02.582Z,929.80
2018-11-10T04:35:02.533Z,929.81
2018-11-10T04:36:02.491Z,929.81
2018-11-10T04:37:02.455Z,929.76
2018-11-10T04:38:02.392Z,929.74
2018-11-10T04:39:02.346Z,929.77
2018-11-10T04:40:02.299Z,929.73
2018-11-10T04:41:02.251Z,929.74
2018-11-10T04:42:02.204Z,929.73
2018-11-10T04:43:02.158Z,929.78
2018-11-10T04:44:02.110Z,929.75
2018-11-10T04:45:02.063Z,929.70
2018-11-10T04:46:02.016Z,929.70
2018-11-10T04:47:01.970Z,929.67
2018-11-10T04:48:01.922Z,929.67
2018-11-10T04:49:01.876Z,929.63
2018-11-10T04:50:01.841Z,929.65
2018-11-10T04:51:01.780Z,929.58
2018-11-10T04:52:01.738Z,929.58
2018-11-10T04:53:01.686Z,929.59
2018-11-10T04:54:01.639Z,929.57
2018-11-10T04:55:01.593Z,929.57
2018-11-10T04:56:01.545Z,929.56
2018-11-10T04:57:01.498Z,929.50
2018-11-10T04:58:01.451Z,929.50
2018-11-10T04:59:01.404Z,929.47
2018-11-10T05:00:01.359Z,929.43
2018-11-10T05:01:01.311Z,929.42
2018-11-10T05:02:01.263Z,929.41
2018-11-10T05:03:01.216Z,929.40
2018-11-10T05:04:01.168Z,929.40
2018-11-10T05:05:01.122Z,929.42
2018-11-10T05:06:01.074Z,929.39
2018-11-10T05:07:01.027Z,929.40
2018-11-10T05:08:00.982Z,929.39
2018-11-10T05:09:00.932Z,929.41
2018-11-10T05:10:00.887Z,929.35
2018-11-10T05:11:00.838Z,929.35
2018-11-10T05:12:00.795Z,929.35
2018-11-10T05:13:00.744Z,929.35
2018-11-10T05:14:00.714Z,929.35
2018-11-10T05:15:00.651Z,929.33
2018-11-10T05:16:00.603Z,929.30
2018-11-10T05:17:00.556Z,929.30
2018-11-10T05:18:00.508Z,929.29
2018-11-10T05:19:00.468Z,929.31
2018-11-10T05:20:00.415Z,929.24
2018-11-10T05:21:00.367Z,929.28
2018-11-10T05:22:00.321Z,929.27
2018-11-10T05:23:00.273Z,929.24
2018-11-10T05:24:00.226Z,929.26
2018-11-10T05:25:00.179Z,929.27
2018-11-10T05:26:00.132Z,929.28
2018-11-10T05:27:00.089Z,929.26
2018-11-10T05:28:00.038Z,929.25
2018-11-10T05:28:59.991Z,929.23
2018-11-10T05:29:59.945Z,929.22
2018-11-10T05:30:59.927Z,929.16
2018-11-10T05:31:59.849Z,929.21
2018-11-10T05:32:59.803Z,929.21
2018-11-10T05:33:59.756Z,929.24
2018-11-10T05:34:59.708Z,929.15
2018-11-10T05:35:59.661Z,929.15
2018-11-10T05:36:59.614Z,929.14
2018-11-10T05:37:59.566Z,929.13
2018-11-10T05:38:59.520Z,929.11
2018-11-10T05:39:59.472Z,929.09
2018-11-10T05:40:59.425Z,929.10
2018-11-10T05:41:59.379Z,929.13
2018-11-10T05:42:59.331Z,929.02
2018-11-10T05:43:59.284Z,929.06
2018-11-10T05:44:59.237Z,929.02
2018-11-10T05:45:59.190Z,929.03
2018-11-10T05:46:59.143Z,929.01
2018-11-10T05:47:59.095Z,928.99
2018-11-10T05:48:59.048Z,929.03
2018-11-10T05:49:59.000Z,928.98
2018-11-10T05:50:58.953Z,928.98
2018-11-10T05:51:58.909Z,928.98
2018-11-10T05:52:58.859Z,928.97
2018-11-10T05:53:58.812Z,928.94
2018-11-10T05:54:58.765Z,928.96
2018-11-10T05:55:58.718Z,928.98
2018-11-10T05:56:58.683Z,928.96
2018-11-10T05:57:58.624Z,928.95
2018-11-10T05:58:58.576Z,928.89
2018-11-10T05:59:58.529Z,928.92
2018-11-10T06:00:58.481Z,928.86
2018-11-10T06:01:58.434Z,928.84
2018-11-10T06:02:58.405Z,928.88
2018-11-10T06:03:58.340Z,928.84
2018-11-10T06:04:58.293Z,928.84
2018-11-10T06:05:58.250Z,928.78
2018-11-10T06:06:58.198Z,928.83
2018-11-10T06:07:58.151Z,928.81
2018-11-10T06:08:58.136Z,928.72
2018-11-10T06:09:58.068Z,928.75
2018-11-10T06:10:58.009Z,928.71
2018-11-10T06:11:57.961Z,928.74
2018-11-10T06:12:57.913Z,928.72
2018-11-10T06:13:57.867Z,928.77
2018-11-10T06:14:57.819Z,928.77
2018-11-10T06:15:57.811Z,928.79
2018-11-10T06:16:57.726Z,928.78
2018-11-10T06:17:57.680Z,928.76
2018-11-10T06:18:57.785Z,928.77
2018-11-10T06:19:57.583Z,928.78
2018-11-10T06:20:57.535Z,928.74
2018-11-10T06:21:57.489Z,928.73
2018-11-10T06:22:57.440Z,928.75
2018-11-10T06:23:57.393Z,928.76
2018-11-10T06:24:57.349Z,928.74
2018-11-10T06:25:57.366Z,928.75
2018-11-10T06:26:57.254Z,928.74
2018-11-10T06:27:57.206Z,928.70
2018-11-10T06:28:57.155Z,928.74
2018-11-10T06:29:57.108Z,928.71
2018-11-10T06:30:57.060Z,928.72
2018-11-10T06:31:57.013Z,928.74
2018-11-10T06:32:56.965Z,928.69
2018-11-10T06:33:56.918Z,928.67
2018-11-10T06:34:56.871Z,928.69
2018-11-10T06:35:56.823Z,928.61
2018-11-10T06:36:56.778Z,928.62
2018-11-10T06:37:56.728Z,928.69
2018-11-10T06:38:56.681Z,928.65
2018-11-10T06:39:56.633Z,928.67
2018-11-10T06:40:56.585Z,928.67
2018-11-10T06:41:56.538Z,928.63
2018-11-10T06:42:56.533Z,928.68
2018-11-10T06:43:56.443Z,928.69
2018-11-10T06:44:56.395Z,928.63
2018-11-10T06:45:56.348Z,928.67
2018-11-10T06:46:56.314Z,928.68
2018-11-10T06:47:56.253Z,928.70
2018-11-10T06:48:56.213Z,928.70
2018-11-10T06:49:56.158Z,928.72
2018-11-10T06:50:56.111Z,928.74
2018-11-10T06:51:56.063Z,928.73
2018-11-10T06:52:56.106Z,928.75
2018-11-10T06:53:55.968Z,928.76
2018-11-10T06:54:55.924Z,928.75
2018-11-10T06:55:55.874Z,928.77
2018-11-10T06:56:55.825Z,928.74
2018-11-10T06:57:55.778Z,928.78
2018-11-10T06:58:55.731Z,928.78
2018-11-10T06:59:55.683Z,928.75
2018-11-10T07:00:55.638Z,928.78
2018-11-10T07:01:55.589Z,928.76
2018-11-10T07:02:55.541Z,928.81
2018-11-10T07:03:55.494Z,928.79
2018-11-10T07:04:55.446Z,928.80
2018-11-10T07:05:55.399Z,928.78
2018-11-10T07:06:55.351Z,928.79
2018-11-10T07:07:55.304Z,928.82
2018-11-10T07:08:55.257Z,928.79
2018-11-10T07:09:55.209Z,928.76
2018-11-10T07:10:55.162Z,928.75
2018-11-10T07:11:55.115Z,928.76
2018-11-10T07:12:55.067Z,928.76
2018-11-10T07:13:55.021Z,928.77
2018-11-10T07:14:54.973Z,928.76
2018-11-10T07:15:54.954Z,928.70
2018-11-10T07:16:54.882Z,928.68
2018-11-10T07:17:54.895Z,928.73
2018-11-10T07:18:54.783Z,928.72
2018-11-10T07:19:54.736Z,928.72
2018-11-10T07:20:54.692Z,928.70
2018-11-10T07:21:54.649Z,928.71
2018-11-10T07:22:54.593Z,928.74
2018-11-10T07:23:54.549Z,928.72
2018-11-10T07:24:54.505Z,928.74
2018-11-10T07:25:54.451Z,928.76
2018-11-10T07:26:54.404Z,928.81
2018-11-10T07:27:54.357Z,928.78
2018-11-10T07:28:54.311Z,928.76
2018-11-10T07:29:54.262Z,928.77
2018-11-10T07:30:54.215Z,928.80
2018-11-10T07:31:54.187Z,928.75
2018-11-10T07:32:54.121Z,928.78
2018-11-10T07:33:54.073Z,928.74
2018-11-10T07:34:54.026Z,928.76
2018-11-10T07:35:53.978Z,928.74
2018-11-10T07:36:53.931Z,928.73
2018-11-10T07:37:53.884Z,928.70
2018-11-10T07:38:53.839Z,928.75
2018-11-10T07:39:53.793Z,928.70
2018-11-10T07:40:53.742Z,928.71
2018-11-10T07:41:53.695Z,928.68
2018-11-10T07:42:53.670Z,928.72
2018-11-10T07:43:53.601Z,928.72
2018-11-10T07:44:53.553Z,928.74
2018-11-10T07:45:53.505Z,928.75
2018-11-10T07:46:53.463Z,928.69
2018-11-10T07:47:53.410Z,928.77
2018-11-10T07:48:53.362Z,928.72
2018-11-10T07:49:53.315Z,928.74
2018-11-10T07:50:53.295Z,928.72
2018-11-10T07:51:53.221Z,928.77
2018-11-10T07:52:53.172Z,928.74
2018-11-10T07:53:53.125Z,928.76
2018-11-10T07:54:53.078Z,928.77
2018-11-10T07:55:53.061Z,928.74
2018-11-10T07:56:52.982Z,928.77
2018-11-10T07:57:52.935Z,928.77
2018-11-10T07:58:52.891Z,928.74
2018-11-10T07:59:52.840Z,928.76
2018-11-10T08:00:52.793Z,928.74
2018-11-10T08:01:52.745Z,928.75
2018-11-10T08:02:52.698Z,928.77
2018-11-10T08:03:52.652Z,928.78
2018-11-10T08:04:52.603Z,928.80
2018-11-10T08:05:52.555Z,928.76
2018-11-10T08:06:52.507Z,928.81
2018-11-10T08:07:52.460Z,928.80
2018-11-10T08:08:52.412Z,928.77
2018-11-10T08:09:52.365Z,928.80
2018-11-10T08:10:52.319Z,928.79
2018-11-10T08:11:52.330Z,928.82
2018-11-10T08:12:52.223Z,928.81
2018-11-10T08:13:52.176Z,928.83
2018-11-10T08:14:52.128Z,928.81
2018-11-10T08:15:52.079Z,928.86
2018-11-10T08:16:52.033Z,928.83
2018-11-10T08:17:51.985Z,928.84
2018-11-10T08:18:51.937Z,928.84
2018-11-10T08:19:51.894Z,928.83
2018-11-10T08:20:51.843Z,928.83
2018-11-10T08:21:51.795Z,928.82
2018-11-10T08:22:51.747Z,928.88
2018-11-10T08:23:51.702Z,928.92
2018-11-10T08:24:51.695Z,928.90
2018-11-10T08:25:51.610Z,928.94
2018-11-10T08:26:51.559Z,928.93
2018-11-10T08:27:51.511Z,928.93
2018-11-10T08:28:51.463Z,928.93
2018-11-10T08:29:51.418Z,928.94
2018-11-10T08:30:51.368Z,928.97
2018-11-10T08:31:51.320Z,928.93
2018-11-10T08:32:51.272Z,928.96
2018-11-10T08:33:51.230Z,928.99
2018-11-10T08:34:51.180Z,928.95
2018-11-10T08:35:51.130Z,928.99
2018-11-10T08:36:51.083Z,929.01
2018-11-10T08:37:51.035Z,929.00
2018-11-10T08:38:50.988Z,929.05
2018-11-10T08:39:50.943Z,929.04
2018-11-10T08:40:50.893Z,929.13
2018-11-10T08:41:50.846Z,929.11
2018-11-10T08:42:50.799Z,929.07
2018-11-10T08:43:50.753Z,929.07
2018-11-10T08:44:50.706Z,929.09
2018-11-10T08:45:50.674Z,929.12
2018-11-10T08:46:50.612Z,929.15
2018-11-10T08:47:50.561Z,929.19
2018-11-10T08:48:50.514Z,929.17
2018-11-10T08:49:50.468Z,929.16
2018-11-10T08:50:50.419Z,929.22
2018-11-10T08:51:50.372Z,929.20
2018-11-10T08:52:50.324Z,929.14
2018-11-10T08:53:50.277Z,929.21
2018-11-10T08:54:50.230Z,929.21
2018-11-10T08:55:50.182Z,929.23
2018-11-10T08:56:50.136Z,929.20
2018-11-10T08:57:50.037Z,929.15
2018-11-10T08:58:50.042Z,929.18
2018-11-10T08:59:49.993Z,929.15
2018-11-10T09:00:49.945Z,929.17
2018-11-10T09:01:49.897Z,929.19
2018-11-10T09:02:49.849Z,929.17
2018-11-10T09:03:49.806Z,929.13
2018-11-10T09:04:49.756Z,929.10
2018-11-10T09:05:49.707Z,929.11
2018-11-10T09:06:49.659Z,929.13
2018-11-10T09:07:49.612Z,929.19
2018-11-10T09:08:49.570Z,929.17
2018-11-10T09:09:49.525Z,929.21
2018-11-10T09:10:49.472Z,929.16
2018-11-10T09:11:49.422Z,929.23
2018-11-10T09:12:49.376Z,929.22
2018-11-10T09:13:49.327Z,929.18
2018-11-10T09:14:49.331Z,929.18
2018-11-10T09:15:49.233Z,929.17
2018-11-10T09:16:49.186Z,929.20
2018-11-10T09:17:49.251Z,929.23
2018-11-10T09:18:49.090Z,929.21
2018-11-10T09:19:49.043Z,929.24
2018-11-10T09:20:48.996Z,929.23
2018-11-10T09:21:48.967Z,929.23
2018-11-10T09:22:48.901Z,929.21
2018-11-10T09:23:48.854Z,929.25
2018-11-10T09:24:48.806Z,929.25
2018-11-10T09:25:48.758Z,929.28
2018-11-10T09:26:48.711Z,929.29
2018-11-10T09:27:48.665Z,929.28
2018-11-10T09:28:48.618Z,929.30
2018-11-10T09:29:48.570Z,929.36
2018-11-10T09:30:48.556Z,929.35
2018-11-10T09:31:48.480Z,929.35
2018-11-10T09:32:48.431Z,929.41
2018-11-10T09:33:48.386Z,929.40
2018-11-10T09:34:48.334Z,929.40
2018-11-10T09:35:48.286Z,929.40
2018-11-10T09:36:48.240Z,929.45
2018-11-10T09:37:48.193Z,929.44
2018-11-10T09:38:48.145Z,929.48
2018-11-10T09:39:48.098Z,929.46
2018-11-10T09:40:48.051Z,929.53
2018-11-10T09:41:48.008Z,929.50
2018-11-10T09:42:48.159Z,929.52
2018-11-10T09:43:47.909Z,929.53
2018-11-10T09:44:47.864Z,929.55
2018-11-10T09:45:47.818Z,929.55
2018-11-10T09:46:47.767Z,929.58
2018-11-10T09:47:47.720Z,929.61
2018-11-10T09:48:47.675Z,929.60
2018-11-10T09:49:47.642Z,929.61
2018-11-10T09:50:47.627Z,929.59
2018-11-10T09:51:47.532Z,929.62
2018-11-10T09:52:47.487Z,929.64
2018-11-10T09:53:47.438Z,929.63
2018-11-10T09:54:47.391Z,929.67
2018-11-10T09:55:47.343Z,929.65
2018-11-10T09:56:47.296Z,929.70
2018-11-10T09:57:47.249Z,929.77
2018-11-10T09:58:47.202Z,929.72
2018-11-10T09:59:47.155Z,929.73
2018-11-10T10:00:47.110Z,929.72
2018-11-10T10:01:47.421Z,929.73
2018-11-10T10:02:47.457Z,929.74
2018-11-10T10:03:46.968Z,929.73
2018-11-10T10:04:46.919Z,929.77
2018-11-10T10:05:46.879Z,929.73
2018-11-10T10:06:46.825Z,929.77
2018-11-10T10:07:46.779Z,929.82
2018-11-10T10:08:46.797Z,929.75
2018-11-10T10:09:46.685Z,929.82
2018-11-10T10:10:46.638Z,929.86
2018-11-10T10:11:46.590Z,929.88
2018-11-10T10:12:46.544Z,929.87
2018-11-10T10:13:46.496Z,929.86
2018-11-10T10:14:46.450Z,929.87
2018-11-10T10:15:46.403Z,929.91
2018-11-10T10:16:46.404Z,929.92
2018-11-10T10:17:46.310Z,929.94
2018-11-10T10:18:46.260Z,929.97
2018-11-10T10:19:46.214Z,929.94
2018-11-10T10:20:46.166Z,929.96
2018-11-10T10:21:46.136Z,930.00
2018-11-10T10:22:46.077Z,930.01
2018-11-10T10:23:46.026Z,930.06
2018-11-10T10:24:45.979Z,930.06
2018-11-10T10:25:45.932Z,930.09
2018-11-10T10:26:45.885Z,930.12
2018-11-10T10:27:45.839Z,930.07
2018-11-10T10:28:45.819Z,930.05
2018-11-10T10:29:45.745Z,930.11
2018-11-10T10:30:45.698Z,930.13
2018-11-10T10:31:45.651Z,930.12
2018-11-10T10:32:45.604Z,930.13
2018-11-10T10:33:45.557Z,930.19
2018-11-10T10:34:45.732Z,930.21
2018-11-10T10:35:45.463Z,930.24
2018-11-10T10:36:45.366Z,930.26
2018-11-10T10:37:45.371Z,930.26
2018-11-10T10:38:45.323Z,930.29
2018-11-10T10:39:45.277Z,930.32
2018-11-10T10:40:45.233Z,930.29
2018-11-10T10:41:45.183Z,930.30
2018-11-10T10:42:45.225Z,930.35
2018-11-10T10:43:45.089Z,930.29
2018-11-10T10:44:45.042Z,930.41
2018-11-10T10:45:44.996Z,930.40
2018-11-10T10:46:44.950Z,930.40
2018-11-10T10:47:44.902Z,930.35
2018-11-10T10:48:44.947Z,930.38
2018-11-10T10:49:44.808Z,930.40
2018-11-10T10:50:44.762Z,930.41
2018-11-10T10:51:44.715Z,930.39
2018-11-10T10:52:44.669Z,930.40
2018-11-10T10:53:44.622Z,930.41
2018-11-10T10:54:44.576Z,930.40
2018-11-10T10:55:44.531Z,930.40
2018-11-10T10:56:44.482Z,930.39
2018-11-10T10:57:44.436Z,930.42
2018-11-10T10:58:44.390Z,930.41
2018-11-10T10:59:44.343Z,930.42
2018-11-10T11:00:44.297Z,930.38
2018-11-10T11:01:44.250Z,930.43
2018-11-10T11:02:44.247Z,930.46
2018-11-10T11:03:44.157Z,930.46
2018-11-10T11:04:44.112Z,930.47
2018-11-10T11:05:44.064Z,930.48
2018-11-10T11:06:44.018Z,930.48
2018-11-10T11:07:43.971Z,930.50
2018-11-10T11:08:43.939Z,930.49
2018-11-10T11:09:43.953Z,930.53
2018-11-10T11:10:43.833Z,930.51
2018-11-10T11:11:43.786Z,930.54
2018-11-10T11:12:43.740Z,930.58
2018-11-10T11:13:43.693Z,930.56
2018-11-10T11:14:43.647Z,930.56
2018-11-10T11:15:43.641Z,930.59
2018-11-10T11:16:43.554Z,930.63
2018-11-10T11:17:43.507Z,930.65
2018-11-10T11:18:43.460Z,930.62
2018-11-10T11:19:43.415Z,930.69
2018-11-10T11:20:43.368Z,930.70
2018-11-10T11:21:43.395Z,930.75
2018-11-10T11:22:43.276Z,930.77
2018-11-10T11:23:43.232Z,930.84
2018-11-10T11:24:43.183Z,930.87
2018-11-10T11:25:43.137Z,930.79
2018-11-10T11:26:43.091Z,930.85
2018-11-10T11:27:43.045Z,930.85
2018-11-10T11:28:42.999Z,930.84
2018-11-10T11:29:42.964Z,930.83
2018-11-10T11:30:42.908Z,930.83
2018-11-10T11:31:42.862Z,930.79
2018-11-10T11:32:42.815Z,930.81
2018-11-10T11:33:42.803Z,930.81
2018-11-10T11:34:43.215Z,930.66
2018-11-10T11:35:42.679Z,930.62
2018-11-10T11:36:42.632Z,930.60
2018-11-10T11:37:42.587Z,930.53
2018-11-10T11:38:42.541Z,930.45
2018-11-10T11:39:42.496Z,930.43
2018-11-10T11:40:42.450Z,930.42
2018-11-10T11:41:42.447Z,930.34
2018-11-10T11:42:42.361Z,930.29
2018-11-10T11:43:42.315Z,930.28
2018-11-10T11:44:42.270Z,930.25
2018-11-10T11:45:42.228Z,930.19
2018-11-10T11:46:42.180Z,930.22
2018-11-10T11:47:42.134Z,930.20
2018-11-10T11:48:42.091Z,930.22
2018-11-10T11:49:42.052Z,930.22
2018-11-10T11:50:41.999Z,930.27
2018-11-10T11:51:41.960Z,930.29
2018-11-10T11:52:41.909Z,930.33
2018-11-10T11:53:41.864Z,930.35
2018-11-10T11:54:41.820Z,930.34
2018-11-10T11:55:41.775Z,930.41
2018-11-10T11:56:41.729Z,930.41
2018-11-10T11:57:41.725Z,930.41
2018-11-10T11:58:41.641Z,930.42
2018-11-10T11:59:41.595Z,930.43
2018-11-10T12:00:41.550Z,930.54
2018-11-10T12:01:41.505Z,930.52
2018-11-10T12:02:41.461Z,930.60
2018-11-10T12:03:41.416Z,930.51
2018-11-10T12:04:41.541Z,930.50
2018-11-10T12:05:41.327Z,930.52
2018-11-10T12:06:41.283Z,930.44
2018-11-10T12:07:41.240Z,930.48
2018-11-10T12:08:41.214Z,930.43
2018-11-10T12:09:41.150Z,930.47
2018-11-10T12:10:41.105Z,930.44
2018-11-10T12:11:41.061Z,930.43
2018-11-10T12:12:41.017Z,930.39
2018-11-10T12:13:40.978Z,930.35
2018-11-10T12:14:40.929Z,930.38
2018-11-10T12:15:40.886Z,930.35
2018-11-10T12:16:40.924Z,930.36
2018-11-10T12:17:40.800Z,930.34
2018-11-10T12:18:40.755Z,930.35
2018-11-10T12:19:40.710Z,930.36
2018-11-10T12:20:40.725Z,930.34
2018-11-10T12:21:40.623Z,930.31
2018-11-10T12:22:40.580Z,930.34
2018-11-10T12:23:40.536Z,930.34
2018-11-10T12:24:40.492Z,930.31
2018-11-10T12:25:40.448Z,930.35
2018-11-10T12:26:40.459Z,930.39
2018-11-10T12:27:40.361Z,930.34